Hibernia, South Carolina
Current Conditions -  °F | °C
As of 3:15 PM on Thursday 18 Dec 2014 (Local Time) from KAIK Reporting Station
Clear Clear  
Wind Chill: 59°   Ceiling: Unl
Heat Index: 59°   Visibility: 10mi
Dew Point: 39°   Wind: 0mph
Humidity: 48%   Direction: NA
Pressure: 30.1"   Gusts: NA
Location:  33.7495°N, 81.5464°W
Report Text: KAIK 182015Z AUTO 00000KT 10SM CLR 15/04 A3010 RMK AO2 PNO
Loading
Personal Weather Stations






























Interactive Weather Map New forecast layout! Learn more

10-Day Weather Forecast

Advertisements
Track Severe Weather on mobile